IBE1184 LEMD-LEIB
Flight info
| Callsign | IBE1184 |
|---|---|
| Flight time | 0h 46m |
| Altitude | 30000 |
| Route | NANDO T257 FENXE/N0472F320 T257 LASPO Z224 VARUT |
| Aircraft | A346/H-SDE2E3FGHIJ3J4J5M1RWXY/LB1D1 |
Departure
| Time | 2026-05-04 19:36 |
|---|---|
| Airport | Adolfo Suárez Madrid–Barajas Airport (LEMD) |
Arrival
| Time | 2026-05-04 20:22 |
|---|---|
| Airport | Ibiza Airport (LEIB) |
| Time | Latitude | Longitude | Altitude | Speed | Heading |
|---|---|---|---|---|---|
| 2026-05-04 19:16 | 40.49302 | -3.56644 | 1979 ft | 0 kts | 270° |
| 2026-05-04 19:27 | 40.49302 | -3.56637 | 1978 ft | 2 kts | 272° |
| 2026-05-04 19:28 | 40.49300 | -3.56617 | 1978 ft | 2 kts | 287° |
| 2026-05-04 19:28 | 40.49294 | -3.56599 | 1977 ft | 2 kts | 299° |
| 2026-05-04 19:28 | 40.49286 | -3.56583 | 1976 ft | 2 kts | 310° |
| 2026-05-04 19:28 | 40.49276 | -3.56569 | 1976 ft | 2 kts | 322° |
| 2026-05-04 19:29 | 40.49263 | -3.56558 | 1976 ft | 2 kts | 333° |
| 2026-05-04 19:29 | 40.49250 | -3.56551 | 1975 ft | 2 kts | 345° |
| 2026-05-04 19:29 | 40.49235 | -3.56547 | 1975 ft | 2 kts | 355° |
| 2026-05-04 19:29 | 40.49220 | -3.56547 | 1975 ft | 2 kts | 2° |
| 2026-05-04 19:30 | 40.49216 | -3.56547 | 1975 ft | 0 kts | 2° |
| 2026-05-04 19:31 | 40.49230 | -3.56546 | 1975 ft | 3 kts | 2° |
| 2026-05-04 19:32 | 40.49266 | -3.56545 | 1975 ft | 6 kts | 0° |
| 2026-05-04 19:32 | 40.49321 | -3.56545 | 1976 ft | 9 kts | 360° |
| 2026-05-04 19:32 | 40.49397 | -3.56545 | 1976 ft | 12 kts | 359° |
| 2026-05-04 19:32 | 40.49490 | -3.56546 | 1975 ft | 14 kts | 358° |
| 2026-05-04 19:33 | 40.49597 | -3.56549 | 1975 ft | 16 kts | 359° |
| 2026-05-04 19:33 | 40.49717 | -3.56549 | 1974 ft | 18 kts | 359° |
| 2026-05-04 19:33 | 40.49851 | -3.56551 | 1971 ft | 20 kts | 358° |
| 2026-05-04 19:33 | 40.49978 | -3.56551 | 1969 ft | 13 kts | 7° |
| 2026-05-04 19:34 | 40.50025 | -3.56465 | 1968 ft | 14 kts | 84° |
| 2026-05-04 19:34 | 40.50028 | -3.56308 | 1964 ft | 19 kts | 89° |
| 2026-05-04 19:34 | 40.50029 | -3.56119 | 1961 ft | 21 kts | 89° |
| 2026-05-04 19:34 | 40.50082 | -3.55945 | 1956 ft | 17 kts | 43° |
| 2026-05-04 19:35 | 40.50155 | -3.55921 | 1955 ft | 6 kts | 0° |
| 2026-05-04 19:35 | 40.50252 | -3.55920 | 1954 ft | 35 kts | 359° |
| 2026-05-04 19:35 | 40.50761 | -3.55926 | 1948 ft | 108 kts | 359° |
| 2026-05-04 19:35 | 40.51713 | -3.55932 | 1950 ft | 164 kts | 359° |
| 2026-05-04 19:36 | 40.52949 | -3.55906 | 2265 ft | 182 kts | 358° |
| 2026-05-04 19:36 | 40.54224 | -3.55883 | 2774 ft | 188 kts | 358° |
| 2026-05-04 19:36 | 40.55519 | -3.55883 | 3470 ft | 188 kts | 357° |
| 2026-05-04 19:36 | 40.56840 | -3.55884 | 3998 ft | 192 kts | 356° |
| 2026-05-04 19:37 | 40.58231 | -3.55908 | 4311 ft | 208 kts | 359° |
| 2026-05-04 19:37 | 40.59711 | -3.55665 | 4648 ft | 224 kts | 9° |
| 2026-05-04 19:37 | 40.61290 | -3.55146 | 5022 ft | 243 kts | 12° |
| 2026-05-04 19:37 | 40.62941 | -3.54545 | 5667 ft | 250 kts | 13° |
| 2026-05-04 19:38 | 40.64571 | -3.53858 | 6551 ft | 249 kts | 21° |
| 2026-05-04 19:38 | 40.66061 | -3.52608 | 7038 ft | 268 kts | 40° |
| 2026-05-04 19:38 | 40.67288 | -3.50638 | 7524 ft | 288 kts | 57° |
| 2026-05-04 19:38 | 40.68351 | -3.48390 | 8269 ft | 293 kts | 52° |
| 2026-05-04 19:39 | 40.69459 | -3.46160 | 9086 ft | 297 kts | 67° |
| 2026-05-04 19:39 | 40.69740 | -3.43497 | 9893 ft | 300 kts | 100° |
| 2026-05-04 19:39 | 40.68936 | -3.40995 | 10651 ft | 301 kts | 131° |
| 2026-05-04 19:39 | 40.67318 | -3.39297 | 11178 ft | 308 kts | 154° |
| 2026-05-04 19:40 | 40.65371 | -3.37937 | 11658 ft | 325 kts | 153° |
| 2026-05-04 19:40 | 40.63405 | -3.36290 | 12040 ft | 347 kts | 142° |
| 2026-05-04 19:40 | 40.61760 | -3.33821 | 12401 ft | 370 kts | 129° |
| 2026-05-04 19:40 | 40.60270 | -3.30990 | 12790 ft | 388 kts | 127° |
| 2026-05-04 19:41 | 40.58731 | -3.28008 | 13408 ft | 397 kts | 127° |
| 2026-05-04 19:41 | 40.57164 | -3.25038 | 14205 ft | 401 kts | 128° |
| 2026-05-04 19:41 | 40.55533 | -3.22014 | 14965 ft | 406 kts | 129° |
| 2026-05-04 19:41 | 40.53892 | -3.19021 | 15677 ft | 411 kts | 129° |
| 2026-05-04 19:42 | 40.52208 | -3.15978 | 16382 ft | 416 kts | 129° |
| 2026-05-04 19:42 | 40.50489 | -3.12885 | 17085 ft | 421 kts | 130° |
| 2026-05-04 19:42 | 40.48761 | -3.09781 | 17766 ft | 426 kts | 130° |
| 2026-05-04 19:42 | 40.47017 | -3.06654 | 18435 ft | 430 kts | 130° |
| 2026-05-04 19:43 | 40.45254 | -3.03446 | 19096 ft | 436 kts | 129° |
| 2026-05-04 19:43 | 40.43519 | -3.00201 | 19738 ft | 441 kts | 129° |
| 2026-05-04 19:43 | 40.41745 | -2.96867 | 20379 ft | 445 kts | 129° |
| 2026-05-04 19:43 | 40.39975 | -2.93542 | 21007 ft | 449 kts | 129° |
| 2026-05-04 19:44 | 40.38179 | -2.90178 | 21612 ft | 454 kts | 129° |
| 2026-05-04 19:44 | 40.36371 | -2.86794 | 22192 ft | 458 kts | 129° |
| 2026-05-04 19:44 | 40.34533 | -2.83366 | 22780 ft | 463 kts | 129° |
| 2026-05-04 19:44 | 40.32695 | -2.79937 | 23350 ft | 467 kts | 129° |
| 2026-05-04 19:45 | 40.30814 | -2.76435 | 23908 ft | 471 kts | 129° |
| 2026-05-04 19:45 | 40.28924 | -2.72924 | 24441 ft | 475 kts | 129° |
| 2026-05-04 19:45 | 40.27020 | -2.69387 | 24947 ft | 480 kts | 130° |
| 2026-05-04 19:45 | 40.25073 | -2.65779 | 25414 ft | 485 kts | 130° |
| 2026-05-04 19:46 | 40.23126 | -2.62175 | 25886 ft | 489 kts | 130° |
| 2026-05-04 19:46 | 40.21166 | -2.58544 | 26367 ft | 493 kts | 130° |
| 2026-05-04 19:46 | 40.19204 | -2.54916 | 26856 ft | 496 kts | 130° |
| 2026-05-04 19:46 | 40.17206 | -2.51217 | 27513 ft | 496 kts | 130° |
| 2026-05-04 19:47 | 40.15239 | -2.47577 | 28181 ft | 494 kts | 130° |
| 2026-05-04 19:47 | 40.13263 | -2.43925 | 28792 ft | 494 kts | 130° |
| 2026-05-04 19:47 | 40.11288 | -2.40282 | 29308 ft | 496 kts | 130° |
| 2026-05-04 19:47 | 40.09278 | -2.36585 | 29753 ft | 500 kts | 130° |
| 2026-05-04 19:48 | 40.07259 | -2.32871 | 29982 ft | 503 kts | 131° |
| 2026-05-04 19:48 | 40.03226 | -2.25457 | 29991 ft | 503 kts | 131° |
| 2026-05-04 19:49 | 39.99176 | -2.18035 | 29990 ft | 503 kts | 131° |
| 2026-05-04 19:49 | 39.95351 | -2.10321 | 29992 ft | 508 kts | 125° |
| 2026-05-04 19:50 | 39.92170 | -2.02129 | 29993 ft | 509 kts | 121° |
| 2026-05-04 19:50 | 39.88896 | -1.94021 | 29997 ft | 507 kts | 123° |
| 2026-05-04 19:51 | 39.85506 | -1.85988 | 30001 ft | 507 kts | 124° |
| 2026-05-04 19:51 | 39.82087 | -1.77964 | 30009 ft | 507 kts | 124° |
| 2026-05-04 19:52 | 39.78669 | -1.69969 | 30012 ft | 507 kts | 124° |
| 2026-05-04 19:52 | 39.75243 | -1.61972 | 30019 ft | 506 kts | 124° |
| 2026-05-04 19:53 | 39.71835 | -1.54048 | 30015 ft | 506 kts | 124° |
| 2026-05-04 19:53 | 39.68389 | -1.46074 | 30011 ft | 506 kts | 124° |
| 2026-05-04 19:54 | 39.64940 | -1.38103 | 30002 ft | 506 kts | 124° |
| 2026-05-04 19:54 | 39.61508 | -1.30182 | 30003 ft | 506 kts | 125° |
| 2026-05-04 19:55 | 39.58062 | -1.22247 | 30009 ft | 506 kts | 125° |
| 2026-05-04 19:55 | 39.54613 | -1.14329 | 30008 ft | 506 kts | 125° |
| 2026-05-04 19:56 | 39.51159 | -1.06437 | 30007 ft | 505 kts | 125° |
| 2026-05-04 19:56 | 39.47687 | -0.98517 | 30014 ft | 505 kts | 125° |
| 2026-05-04 19:57 | 39.44247 | -0.90687 | 30001 ft | 504 kts | 125° |
| 2026-05-04 19:57 | 39.40791 | -0.82797 | 29986 ft | 503 kts | 125° |
| 2026-05-04 19:58 | 39.37339 | -0.74984 | 29968 ft | 503 kts | 125° |
| 2026-05-04 19:58 | 39.33870 | -0.67150 | 29958 ft | 504 kts | 125° |
| 2026-05-04 19:59 | 39.30443 | -0.59275 | 29944 ft | 506 kts | 122° |
| 2026-05-04 19:59 | 39.27611 | -0.50913 | 29939 ft | 511 kts | 114° |
| 2026-05-04 19:59 | 39.26517 | -0.46544 | 29801 ft | 514 kts | 110° |
| 2026-05-04 20:00 | 39.25580 | -0.42128 | 29543 ft | 513 kts | 109° |
| 2026-05-04 20:00 | 39.24668 | -0.37677 | 29205 ft | 511 kts | 108° |
| 2026-05-04 20:00 | 39.23775 | -0.33313 | 28756 ft | 508 kts | 109° |
| 2026-05-04 20:00 | 39.22866 | -0.28897 | 28191 ft | 505 kts | 109° |
| 2026-05-04 20:01 | 39.21965 | -0.24563 | 27568 ft | 505 kts | 109° |
| 2026-05-04 20:01 | 39.21057 | -0.20231 | 26923 ft | 504 kts | 109° |
| 2026-05-04 20:01 | 39.20145 | -0.15896 | 26255 ft | 504 kts | 109° |
| 2026-05-04 20:01 | 39.19224 | -0.11529 | 25726 ft | 500 kts | 109° |
| 2026-05-04 20:02 | 39.18321 | -0.07243 | 25314 ft | 494 kts | 110° |
| 2026-05-04 20:02 | 39.17425 | -0.03016 | 24891 ft | 488 kts | 110° |
| 2026-05-04 20:02 | 39.16540 | 0.01160 | 24457 ft | 484 kts | 110° |
| 2026-05-04 20:02 | 39.15658 | 0.05302 | 24023 ft | 479 kts | 110° |
| 2026-05-04 20:03 | 39.14788 | 0.09383 | 23588 ft | 475 kts | 110° |
| 2026-05-04 20:03 | 39.13919 | 0.13451 | 23163 ft | 471 kts | 110° |
| 2026-05-04 20:03 | 39.13052 | 0.17499 | 22727 ft | 467 kts | 110° |
| 2026-05-04 20:03 | 39.12195 | 0.21494 | 22300 ft | 463 kts | 110° |
| 2026-05-04 20:04 | 39.11343 | 0.25467 | 21876 ft | 460 kts | 110° |
| 2026-05-04 20:04 | 39.10497 | 0.29398 | 21451 ft | 456 kts | 110° |
| 2026-05-04 20:04 | 39.09651 | 0.33319 | 21020 ft | 453 kts | 110° |
| 2026-05-04 20:04 | 39.08820 | 0.37174 | 20600 ft | 450 kts | 110° |
| 2026-05-04 20:05 | 39.07979 | 0.41060 | 20171 ft | 447 kts | 110° |
| 2026-05-04 20:05 | 39.07156 | 0.44862 | 19752 ft | 444 kts | 110° |
| 2026-05-04 20:05 | 39.06331 | 0.48657 | 19328 ft | 442 kts | 110° |
| 2026-05-04 20:05 | 39.05500 | 0.52474 | 18898 ft | 439 kts | 110° |
| 2026-05-04 20:06 | 39.04688 | 0.56197 | 18489 ft | 436 kts | 110° |
| 2026-05-04 20:06 | 39.03868 | 0.59952 | 18061 ft | 434 kts | 109° |
| 2026-05-04 20:06 | 39.03069 | 0.63649 | 17652 ft | 432 kts | 108° |
| 2026-05-04 20:06 | 39.02426 | 0.67456 | 17227 ft | 432 kts | 104° |
| 2026-05-04 20:07 | 39.02031 | 0.71228 | 16820 ft | 431 kts | 98° |
| 2026-05-04 20:07 | 39.01825 | 0.75071 | 16413 ft | 429 kts | 96° |
| 2026-05-04 20:07 | 39.01670 | 0.78872 | 16002 ft | 426 kts | 96° |
| 2026-05-04 20:07 | 39.01518 | 0.82689 | 15586 ft | 423 kts | 96° |
| 2026-05-04 20:08 | 39.01364 | 0.86430 | 15175 ft | 421 kts | 96° |
| 2026-05-04 20:08 | 39.01203 | 0.90148 | 14765 ft | 418 kts | 96° |
| 2026-05-04 20:08 | 39.01038 | 0.93847 | 14353 ft | 415 kts | 96° |
| 2026-05-04 20:08 | 39.00871 | 0.97533 | 13939 ft | 412 kts | 96° |
| 2026-05-04 20:09 | 39.00704 | 1.01177 | 13532 ft | 409 kts | 96° |
| 2026-05-04 20:09 | 39.00537 | 1.04793 | 13124 ft | 405 kts | 96° |
| 2026-05-04 20:09 | 39.00369 | 1.08370 | 12714 ft | 402 kts | 96° |
| 2026-05-04 20:09 | 39.00200 | 1.11955 | 12341 ft | 398 kts | 96° |
| 2026-05-04 20:10 | 39.00058 | 1.15427 | 12184 ft | 386 kts | 93° |
| 2026-05-04 20:10 | 39.00172 | 1.18834 | 12077 ft | 374 kts | 85° |
| 2026-05-04 20:10 | 39.00577 | 1.22088 | 11976 ft | 362 kts | 79° |
| 2026-05-04 20:10 | 39.01099 | 1.25190 | 11861 ft | 351 kts | 78° |
| 2026-05-04 20:11 | 39.01627 | 1.28174 | 11749 ft | 340 kts | 78° |
| 2026-05-04 20:11 | 39.02139 | 1.31081 | 11673 ft | 327 kts | 78° |
| 2026-05-04 20:11 | 39.02624 | 1.33881 | 11607 ft | 315 kts | 78° |
| 2026-05-04 20:11 | 39.03086 | 1.36584 | 11518 ft | 305 kts | 78° |
| 2026-05-04 20:12 | 39.03526 | 1.39177 | 11441 ft | 293 kts | 79° |
| 2026-05-04 20:12 | 39.03954 | 1.41721 | 11379 ft | 287 kts | 79° |
| 2026-05-04 20:12 | 39.04278 | 1.43645 | 11324 ft | 286 kts | 79° |
| 2026-05-04 20:12 | 39.04331 | 1.43962 | 11313 ft | 286 kts | 79° |
| 2026-05-04 20:13 | 39.04722 | 1.46345 | 11192 ft | 287 kts | 80° |
| 2026-05-04 20:13 | 39.05086 | 1.48851 | 10884 ft | 287 kts | 81° |
| 2026-05-04 20:13 | 39.05436 | 1.51371 | 10589 ft | 286 kts | 81° |
| 2026-05-04 20:13 | 39.05781 | 1.53854 | 10308 ft | 284 kts | 81° |
| 2026-05-04 20:14 | 39.06130 | 1.56336 | 10070 ft | 280 kts | 81° |
| 2026-05-04 20:14 | 39.06472 | 1.58751 | 9723 ft | 271 kts | 81° |
| 2026-05-04 20:14 | 39.06821 | 1.61082 | 9396 ft | 261 kts | 77° |
| 2026-05-04 20:14 | 39.07290 | 1.63298 | 9020 ft | 253 kts | 76° |
| 2026-05-04 20:15 | 39.07524 | 1.65480 | 8562 ft | 246 kts | 98° |
| 2026-05-04 20:15 | 39.06953 | 1.67489 | 8115 ft | 235 kts | 125° |
| 2026-05-04 20:15 | 39.05966 | 1.69118 | 7635 ft | 229 kts | 143° |
| 2026-05-04 20:15 | 39.04573 | 1.69921 | 7130 ft | 218 kts | 177° |
| 2026-05-04 20:16 | 39.03136 | 1.69612 | 6642 ft | 210 kts | 205° |
| 2026-05-04 20:16 | 39.01834 | 1.68787 | 6156 ft | 209 kts | 211° |
| 2026-05-04 20:16 | 39.00609 | 1.67779 | 5652 ft | 208 kts | 220° |
| 2026-05-04 20:16 | 38.99573 | 1.66521 | 5159 ft | 206 kts | 231° |
| 2026-05-04 20:17 | 38.98747 | 1.65052 | 4664 ft | 204 kts | 239° |
| 2026-05-04 20:17 | 38.98071 | 1.63453 | 4206 ft | 200 kts | 244° |
| 2026-05-04 20:17 | 38.97468 | 1.61912 | 3927 ft | 189 kts | 244° |
| 2026-05-04 20:17 | 38.96890 | 1.60457 | 3675 ft | 179 kts | 243° |
| 2026-05-04 20:18 | 38.96317 | 1.59048 | 3448 ft | 177 kts | 243° |
| 2026-05-04 20:18 | 38.95741 | 1.57652 | 3220 ft | 176 kts | 243° |
| 2026-05-04 20:18 | 38.95163 | 1.56265 | 2994 ft | 175 kts | 242° |
| 2026-05-04 20:18 | 38.94591 | 1.54896 | 2775 ft | 175 kts | 242° |
| 2026-05-04 20:19 | 38.94022 | 1.53535 | 2543 ft | 169 kts | 242° |
| 2026-05-04 20:19 | 38.93484 | 1.52245 | 2304 ft | 156 kts | 241° |
| 2026-05-04 20:19 | 38.92986 | 1.51051 | 2101 ft | 150 kts | 241° |
| 2026-05-04 20:19 | 38.92493 | 1.49870 | 1922 ft | 150 kts | 241° |
| 2026-05-04 20:20 | 38.92003 | 1.48691 | 1735 ft | 149 kts | 240° |
| 2026-05-04 20:20 | 38.91517 | 1.47516 | 1544 ft | 149 kts | 241° |
| 2026-05-04 20:20 | 38.91032 | 1.46342 | 1344 ft | 150 kts | 242° |
| 2026-05-04 20:20 | 38.90552 | 1.45149 | 1153 ft | 150 kts | 241° |
| 2026-05-04 20:21 | 38.90055 | 1.43971 | 947 ft | 151 kts | 239° |
| 2026-05-04 20:21 | 38.89556 | 1.42783 | 723 ft | 151 kts | 241° |
| 2026-05-04 20:21 | 38.88552 | 1.40377 | 364 ft | 153 kts | 240° |
| 2026-05-04 20:22 | 38.88054 | 1.39173 | 151 ft | 154 kts | 241° |
| 2026-05-04 20:22 | 38.87559 | 1.37974 | 38 ft | 141 kts | 242° |
| 2026-05-04 20:22 | 38.87204 | 1.37118 | 38 ft | 76 kts | 242° |
| 2026-05-04 20:22 | 38.87043 | 1.36730 | 38 ft | 37 kts | 242° |
| 2026-05-04 20:23 | 38.86921 | 1.36432 | 38 ft | 37 kts | 243° |
| 2026-05-04 20:23 | 38.86882 | 1.36283 | 38 ft | 9 kts | 299° |
| 2026-05-04 20:23 | 38.86940 | 1.36233 | 38 ft | 11 kts | 336° |
| 2026-05-04 20:23 | 38.87013 | 1.36234 | 37 ft | 11 kts | 36° |